Mesquite, Nevada Weather observations

Data are for observation ending at time listed.
 Day   Time    Ave.   Ave.  Ave.  Vector   Max.   Stn.    Total    Solar   Ave.  
  of    of     Air    Rel.  Wind   Wind    Wind   Baro.  Precip.   Rad.    Soil  
Year   Day     Temp.  Hum.  Speed  Dir.    Gust   Pres.                    Temp. 
2017   (PST)    F      %     mph   deg.    mph     mb.     in.     W/m2     F   
------------------------------------------------------------------------------
 323    1:20   40.1    28    3.4    70      4.0   959.1    0.00       0    63.0
 323    1:30   39.8    29    3.1    61      4.2   958.9    0.00       0    62.9
 323    1:40   39.7    29    3.8    49      4.8   958.8    0.00       0    62.8
 323    1:50   39.3    30    4.2    36      5.4   958.8    0.00       0    62.7
 323    2:00   39.4    30    4.4    37      5.8   958.5    0.00       0    62.6
 323    2:10   39.5    29    5.0    39      5.8   958.0    0.00       0    62.5
 323    2:20   39.9    28    3.8    43      5.5   957.3    0.00       0    62.3
 323    2:30   40.5    28    4.2    31      5.6   957.4    0.00       0    62.2
 323    2:40   40.8    26    4.3    40      5.5   956.3    0.00       0    62.1
 323    2:50   39.4    29    3.7    70      4.9   956.1    0.00       0    62.0
 323    3:00   37.9    31    3.3    86      4.2   955.6    0.00       0    61.9
 323    3:10   37.8    32    2.3    64      3.0   956.7    0.00       0    61.8
 323    3:20   38.5    31    1.5    32      3.4   955.6    0.00       0    61.7
 323    3:30   39.0    30    2.8    40      4.7   955.0    0.00       0    61.6
 323    3:40   39.0    30    3.6    61      5.3   955.4    0.00       0    61.5
 323    3:50   37.8    31    4.1    61      5.1   956.8    0.00       0    61.4
 323    4:00   37.9    32    3.5    35      4.2   957.2    0.00       0    61.3
 323    4:10   38.5    30    3.2    48      4.6   957.5    0.00       0    61.2
 323    4:20   38.6    30    4.5    58      6.1   956.5    0.00       0    61.1
 323    4:30   37.1    32    6.1    58      7.3   955.9    0.00       0    61.0
 323    4:40   37.6    30    5.5    42      6.8   956.6    0.00       0    60.9
 323    4:50   38.4    29    4.1    35      4.7   957.2    0.00       0    60.8
 323    5:00   39.6    28    4.1    62      5.3   956.4    0.00       0    60.7
 323    5:10   38.4    30    4.8    88      6.1   955.4    0.00       0    60.6
 323    5:20   36.4    32    2.9    89      4.1   955.9    0.00       0    60.5
 323    5:30   36.0    33    3.3    88      4.8   956.9    0.00       0    60.4
 323    5:40   35.1    34    3.6    88      4.9   956.2    0.00       0    60.3
 323    5:50   35.3    33    5.1    88      6.1   956.9    0.00       0    60.2
 323    6:00   34.7    34    4.3    72      6.1   956.5    0.00       0    60.1
 323    6:10   35.1    35    3.5    46      5.0   954.7    0.00       0    60.0
 323    6:20   35.6    33    3.8    21      4.7   957.1    0.00       3    59.9
 323    6:30   36.2    32    4.5    43      5.4   957.8    0.00       4    59.8
 323    6:40   37.2    30    4.3    47      5.5   958.4    0.00       8    59.7
 323    6:50   36.9    30    3.7    59      4.6   958.5    0.00       9    59.6
 323    7:00   36.5    32    2.8    85      4.0   958.6    0.00      32    59.5
 323    7:10   39.9    28    1.2   114      3.0   959.0    0.00      91    59.4
 323    7:20   39.6    29    2.8    99      4.3   959.0    0.00     115    59.3
 323    7:30   39.1    29    4.2    97      5.5   959.0    0.00     139    59.2
 323    7:40   39.1    30    3.0    59      4.7   959.0    0.00     164    59.1
 323    7:50   40.9    28    2.5    57      3.7   959.0    0.00     188    59.1
 323    8:00   42.6    26    2.4    64      3.5   959.0    0.00     212    59.0
 323    8:10   44.6    24    2.2    47      3.7   959.1    0.00     236    59.0
 323    8:20   46.2    23    2.8    64      3.9   959.1    0.00     259    59.0
 323    8:30   46.7    23    2.8    98      4.4   959.0    0.00     282    59.0
 323    8:40   48.4    22    2.6   101      4.5   959.1    0.00     304    59.1
 323    8:50   49.6    22    2.2   124      3.7   959.1    0.00     325    59.1
 323    9:00   50.1    20    3.1    96      5.0   959.2    0.00     345    59.2
 323    9:10   50.6    21    3.5    99      5.5   959.3    0.00     364    59.4
 323    9:20   51.3    20    4.1   104      6.1   959.3    0.00     382    59.6
 323    9:30   51.7    20    4.1    96      5.8   959.1    0.00     400    59.8
 323    9:40   52.6    20    3.4    97      5.8   959.0    0.00     416    60.0
 323    9:50   53.5    19    3.7    90      5.8   958.8    0.00     430    60.2
 323   10:00   55.5    17    2.0    99      3.9   958.8    0.00     444    60.4
 323   10:10   56.2    16    2.2    48      4.7   958.7    0.00     456    60.7
 323   10:20   58.1    15    1.1    85      3.9   958.7    0.00     467    61.0
 323   10:30   58.2    14    2.5    72      5.4   958.4    0.00     476    61.3
 323   10:40   58.5    14    2.3    71      4.5   958.2    0.00     484    61.7
 323   10:50   58.6    14    2.7   105      4.8   958.0    0.00     490    62.0
 323   11:00   59.3    14    2.5   107      5.8   957.6    0.00     475    62.4
 323   11:10   60.3    14    2.1    90      5.6   957.3    0.00     496    62.7
 323   11:20   59.4    15    2.2   330      3.5   957.1    0.00     498    63.1
 323   11:30   60.7    14    0.9   300      2.6   956.8    0.00     501    63.4
 323   11:40   60.2    14    2.1   260      4.6   956.6    0.00     502    63.9
 323   11:50   60.6    14    1.1   238      3.1   956.3    0.00     500    64.2
 323   12:00   61.0    14    1.7   222      4.4   956.1    0.00     496    64.6
 323   12:10   60.8    14    2.1   218      4.0   956.0    0.00     495    65.0
 323   12:20   61.4    13    2.0    92      3.9   955.7    0.00     488    65.4
 323   12:30   62.0    13    2.4   132      4.3   955.5    0.00     481    65.7
 323   12:40   62.3    12    1.7   176      3.7   955.3    0.00     471    66.1
 323   12:50   63.1    12    1.9   158      4.7   955.0    0.00     462    66.5
 323   13:00   64.2    12    1.2   219      3.1   954.9    0.00     453    66.8
 323   13:10   63.6    12    2.3   265      4.7   954.7    0.00     434    67.2
 323   13:20   62.9    12    1.9   251      4.9   954.6    0.00     394    67.5
 323   13:30   63.7    11    1.2   304      3.1   954.4    0.00     387    67.8
 323   13:40   63.9    12    2.1   262      4.7   954.3    0.00     372    68.1
 323   13:50   63.6    12    1.9   284      3.5   954.1    0.00     339    68.3
 323   14:00   64.1    12    2.2   283      4.9   954.0    0.00     258    68.6
 323   14:10   64.1    11    1.7   247      4.3   953.8    0.00     324    68.8
 323   14:20   64.6    11    3.0   225      5.1   953.7    0.00     311    69.0
 323   14:30   64.7    12    2.8   265      5.0   953.7    0.00     278    69.2
 323   14:40   64.6    11    2.4   278      3.9   953.5    0.00     270    69.4
 323   14:50   64.7    11    2.3   278      3.8   953.4    0.00     243    69.5
 323   15:00   64.6    12    2.9   261      5.7   953.4    0.00     224    69.7
 323   15:10   64.4    11    3.6   259      5.6   953.5    0.00     198    69.8
 323   15:20   64.8    11    3.1   265      5.6   953.5    0.00     168    69.8
 323   15:30   64.6    11    3.2   294      5.2   953.5    0.00     136    69.9
 323   15:40   64.6    11    3.1   260      5.1   953.4    0.00     122    69.9
 323   15:50   64.6    11    1.9   284      3.5   953.2    0.00     101    70.0
 323   16:00   64.0    12    1.6   309      2.9   953.1    0.00      51    70.0
 323   16:10   62.4    12    1.5   331      2.4   953.0    0.00      32    69.9
 323   16:20   61.2    13    1.9   320      2.6   953.0    0.00      12    69.9
 323   16:30   60.4    13    1.7   318      2.8   953.0    0.00       6    69.8
 323   16:40   59.5    13    0.7   341      1.2   953.0    0.00       3    69.7
 323   16:50   59.6    13    0.9   183      2.9   953.1    0.00       1    69.6
 323   17:00   59.3    13    2.7   177      3.5   953.2    0.00       0    69.4
 323   17:10   59.1    13    2.5   158      3.1   953.2    0.00       0    69.2
 323   17:20   57.7    14    3.0   126      4.5   953.2    0.00       0    69.0
 323   17:30   55.3    15    1.2    75      1.9   953.4    0.00       0    68.8
 323   17:40   54.2    16    1.7    39      2.5   953.7    0.00       0    68.6
 323   17:50   53.0    16    2.5    52      3.7   953.6    0.00       0    68.4
 323   18:00   51.9    16    3.3    77      4.0   953.5    0.00       0    68.3
 323   18:10   52.2    16    2.5    99      3.7   953.5    0.00       0    68.1
 323   18:20   51.5    16    1.6    91      2.5   953.5    0.00       0    67.9
 323   18:30   51.4    17    0.8   292      2.0   953.5    0.00       0    67.7
 323   18:40   51.7    17    0.8   301      2.3   953.8    0.00       0    67.5
 323   18:50   52.3    16    1.1   132      2.8   953.9    0.00       0    67.3
 323   19:00   51.5    16    2.4   132      3.3   954.1    0.00       0    67.1
 323   19:10   49.2    18    3.8    94      5.0   954.3    0.00       0    67.0
 323   19:20   47.0    19    4.5    89      5.9   954.2    0.00       0    66.8
 323   19:30   46.2    20    4.2    79      4.8   954.3    0.00       0    66.6
 323   19:40   46.6    20    4.2    81      5.1   954.1    0.00       0    66.4
 323   19:50   46.2    19    4.3    76      5.3   954.2    0.00       0    66.3
 323   20:00   45.1    20    3.4    48      4.6   954.2    0.00       0    66.1
 323   20:10   45.7    20    2.0   304      2.6   954.3    0.00       0    65.9
 323   20:20   46.6    21    1.8   276      2.9   954.3    0.00       0    65.8
 323   20:30   46.8    20    2.1   146      3.7   954.4    0.00       0    65.6
 323   20:40   46.6    19    3.4   122      4.6   954.5    0.00       0    65.4
 323   20:50   45.1    20    3.6   109      4.4   954.6    0.00       0    65.3
 323   21:00   44.5    20    2.5   118      4.5   954.7    0.00       0    65.1
 323   21:10   44.5    20    0.9   109      2.6   954.7    0.00       0    65.0
 323   21:20   44.1    20    1.9    60      2.7   954.7    0.00       0    64.8
 323   21:30   44.5    20    1.9   296      3.9   954.9    0.00       0    64.7
 323   21:40   44.7    21    1.4   284      3.2   954.9    0.00       0    64.5
 323   21:50   43.6    20    2.2    88      3.2   954.6    0.00       0    64.4
 323   22:00   42.1    22    2.8    62      3.3   954.3    0.00       0    64.3
 323   22:10   42.0    23    2.8    29      3.4   954.3    0.00       0    64.1
 323   22:20   43.3    22    2.6   307      3.4   954.3    0.00       0    64.0
 323   22:30   44.0    22    1.6   291      3.2   954.4    0.00       0    63.9
 323   22:40   43.4    22    1.7   138      5.3   954.5    0.00       0    63.7
 323   22:50   40.9    23    4.3   100      5.8   954.5    0.00       0    63.6
 323   23:00   40.6    23    4.1   108      5.3   954.4    0.00       0    63.5
 323   23:10   41.3    22    2.3   131      3.8   954.4    0.00       0    63.4
 323   23:20   42.1    22    1.4   289      2.3   954.4    0.00       0    63.2
 323   23:30   42.2    22    0.9   108      2.1   954.4    0.00       0    63.1
 323   23:40   42.3    21    2.2    80      2.9   954.5    0.00       0    63.0
 323   23:50   42.0    21    1.7    29      2.3   954.7    0.00       0    62.9
 324    0:00   41.8    21    1.3    62      2.4   954.9    0.00       0    62.8
 324    0:10   41.8    21    2.3    69      3.0   954.7    0.00       0    62.7
 324    0:20   41.7    21    3.2    65      3.7   954.6    0.00       0    62.6
 324    0:30   40.7    22    1.4    48      3.0   954.5    0.00       0    62.5
 324    0:40   40.3    23    1.1    13      2.6   954.4    0.00       0    62.3
 324    0:50   41.3    24    2.8   287      4.1   954.3    0.00       0    62.3
 324    1:00   41.8    26    3.4   296      4.5   954.3    0.00       0    62.2
 324    1:10   42.8    22    1.5   304      3.9   954.4    0.00       0    62.0

Return to Mesquite, Nevada graphs page.


Western Regional Climate Center,wrcc@dri.edu